Time,TemperatureF,DewpointF,PressureIn,WindDirection,WindDirectionDegrees,WindSpeedMPH,WindSpeedGustMPH,Humidity,HourlyPrecipIn,Conditions,Clouds,dailyrainin,SolarRadiationWatts/m^2,SoftwareType,DateUTC
2016-02-12 00:00:00,36.5,30.0,30.27,SSW,211,2.0,3.0,77,0.00,,,0.00,0.0,meteohub,2016-02-12 08:00:00,
2016-02-12 00:05:00,36.7,30.2,30.27,SSW,210,4.0,4.0,77,0.00,,,0.00,0.0,meteohub,2016-02-12 08:05:00,
2016-02-12 00:10:00,37.2,30.7,30.26,SSW,211,2.0,4.0,77,0.00,,,0.00,0.0,meteohub,2016-02-12 08:10:00,
2016-02-12 00:15:00,37.2,30.4,30.26,SSW,211,0.0,5.0,76,0.00,,,0.00,0.0,meteohub,2016-02-12 08:15:00,
2016-02-12 00:20:00,37.2,30.4,30.26,SSW,211,2.0,5.0,76,0.00,,,0.00,0.0,meteohub,2016-02-12 08:20:00,
2016-02-12 00:25:00,37.4,30.6,30.26,SSW,211,0.0,4.0,76,0.00,,,0.00,0.0,meteohub,2016-02-12 08:25:00,
2016-02-12 00:30:00,37.4,30.2,30.26,SSW,211,2.0,5.0,75,0.00,,,0.00,0.0,meteohub,2016-02-12 08:30:00,
2016-02-12 00:35:00,37.6,30.7,30.26,SSW,210,0.0,5.0,76,0.00,,,0.00,0.0,meteohub,2016-02-12 08:35:00,
2016-02-12 00:40:00,37.9,30.7,30.26,SSW,211,4.0,5.0,75,0.00,,,0.00,0.0,meteohub,2016-02-12 08:40:00,
2016-02-12 00:45:00,37.9,30.4,30.26,SSW,211,1.0,5.0,74,0.00,,,0.00,0.0,meteohub,2016-02-12 08:45:00,
2016-02-12 00:50:00,37.9,30.7,30.26,SSW,210,0.0,4.0,75,0.00,,,0.00,0.0,meteohub,2016-02-12 08:50:00,
2016-02-12 00:55:00,37.8,30.6,30.27,SSW,211,0.0,4.0,75,0.00,,,0.00,0.0,meteohub,2016-02-12 08:55:00,
2016-02-12 01:02:00,38.1,30.9,30.27,SSW,211,0.0,3.0,75,0.00,,,0.00,0.0,meteohub,2016-02-12 09:02:00,
2016-02-12 01:07:00,38.7,30.7,30.27,SSW,211,0.0,3.0,73,0.00,,,0.00,0.0,meteohub,2016-02-12 09:07:00,
2016-02-12 01:12:00,38.5,30.2,30.27,SSW,211,1.0,3.0,72,0.00,,,0.00,0.0,meteohub,2016-02-12 09:12:00,
2016-02-12 01:22:00,37.8,30.2,30.27,SSW,211,0.0,2.0,74,0.00,,,0.00,0.0,meteohub,2016-02-12 09:22:00,
2016-02-12 01:27:00,37.9,30.4,30.27,SSW,211,0.0,2.0,74,0.00,,,0.00,0.0,meteohub,2016-02-12 09:27:00,
2016-02-12 01:37:00,38.7,30.0,30.27,SSW,210,0.0,3.0,71,0.00,,,0.00,0.0,meteohub,2016-02-12 09:37:00,
2016-02-12 01:42:00,38.5,29.8,30.27,SSW,211,0.0,3.0,71,0.00,,,0.00,0.0,meteohub,2016-02-12 09:42:00,
2016-02-12 01:47:00,37.9,29.3,30.27,SSW,211,0.0,3.0,71,0.00,,,0.00,0.0,meteohub,2016-02-12 09:47:00,
2016-02-12 01:52:00,37.8,29.1,30.27,SSW,211,0.0,2.0,71,0.00,,,0.00,0.0,meteohub,2016-02-12 09:52:00,
2016-02-12 01:57:00,37.2,29.3,30.27,SSW,211,2.0,2.0,73,0.00,,,0.00,0.0,meteohub,2016-02-12 09:57:00,
2016-02-12 02:02:00,37.0,29.5,30.27,SSW,211,0.0,2.0,74,0.00,,,0.00,0.0,meteohub,2016-02-12 10:02:00,
2016-02-12 02:08:00,36.9,29.3,30.27,SSW,211,0.0,2.0,74,0.00,,,0.00,0.0,meteohub,2016-02-12 10:08:00,
2016-02-12 02:13:00,36.7,29.1,30.27,SSW,211,1.0,2.0,74,0.00,,,0.00,0.0,meteohub,2016-02-12 10:13:00,
2016-02-12 02:18:00,36.7,29.1,30.27,SSW,211,0.0,2.0,74,0.00,,,0.00,0.0,meteohub,2016-02-12 10:18:00,
2016-02-12 02:23:00,36.3,29.1,30.27,SSW,211,0.0,2.0,75,0.00,,,0.00,0.0,meteohub,2016-02-12 10:23:00,
2016-02-12 02:28:00,36.1,28.9,30.28,SSW,211,0.0,2.0,75,0.00,,,0.00,0.0,meteohub,2016-02-12 10:28:00,
2016-02-12 02:33:00,36.5,29.3,30.27,SSW,211,1.0,3.0,75,0.00,,,0.00,0.0,meteohub,2016-02-12 10:33:00,
2016-02-12 02:38:00,36.1,28.9,30.27,SSW,211,0.0,3.0,75,0.00,,,0.00,0.0,meteohub,2016-02-12 10:38:00,
2016-02-12 02:43:00,36.3,28.8,30.27,SSW,211,0.0,3.0,74,0.00,,,0.00,0.0,meteohub,2016-02-12 10:43:00,
2016-02-12 02:48:00,36.1,28.9,30.27,SSW,211,0.0,3.0,75,0.00,,,0.00,0.0,meteohub,2016-02-12 10:48:00,
2016-02-12 02:53:00,36.3,29.1,30.27,SSW,211,0.0,3.0,75,0.00,,,0.00,0.0,meteohub,2016-02-12 10:53:00,
2016-02-12 03:03:00,36.7,29.5,30.27,SSW,211,0.0,2.0,75,0.00,,,0.00,0.0,meteohub,2016-02-12 11:03:00,
2016-02-12 03:08:00,36.5,29.3,30.27,SSW,211,0.0,2.0,75,0.00,,,0.00,0.0,meteohub,2016-02-12 11:08:00,
2016-02-12 03:13:00,36.3,28.6,30.27,SSW,211,1.0,2.0,73,0.00,,,0.00,0.0,meteohub,2016-02-12 11:13:00,
2016-02-12 03:18:00,36.1,28.9,30.27,SSW,211,0.0,3.0,75,0.00,,,0.00,0.0,meteohub,2016-02-12 11:18:00,
2016-02-12 03:23:00,36.3,29.5,30.27,SSW,211,0.0,3.0,76,0.00,,,0.00,0.0,meteohub,2016-02-12 11:23:00,
2016-02-12 03:28:00,36.1,29.3,30.27,SSW,211,0.0,3.0,76,0.00,,,0.00,0.0,meteohub,2016-02-12 11:28:00,
2016-02-12 03:38:00,36.7,30.2,30.27,SSW,211,0.0,2.0,77,0.00,,,0.00,0.0,meteohub,2016-02-12 11:38:00,
2016-02-12 03:43:00,37.0,30.2,30.27,SSW,211,0.0,2.0,76,0.00,,,0.00,0.0,meteohub,2016-02-12 11:43:00,
2016-02-12 03:48:00,36.7,29.5,30.26,SSW,211,0.0,2.0,75,0.00,,,0.00,0.0,meteohub,2016-02-12 11:48:00,
2016-02-12 03:53:00,36.9,30.0,30.26,SSW,211,0.0,2.0,76,0.00,,,0.00,0.0,meteohub,2016-02-12 11:53:00,
2016-02-12 03:58:00,36.5,29.3,30.27,SSW,211,0.0,2.0,75,0.00,,,0.00,0.0,meteohub,2016-02-12 11:58:00,
2016-02-12 04:03:00,36.7,29.5,30.27,SSW,211,1.0,2.0,75,0.00,,,0.00,0.0,meteohub,2016-02-12 12:03:00,
2016-02-12 04:08:00,36.3,29.1,30.27,SSW,211,0.0,2.0,75,0.00,,,0.00,0.0,meteohub,2016-02-12 12:08:00,
2016-02-12 04:13:00,35.8,28.9,30.26,SSW,211,0.0,2.0,76,0.00,,,0.00,0.0,meteohub,2016-02-12 12:13:00,
2016-02-12 04:18:00,36.0,29.5,30.27,SSW,211,0.0,2.0,77,0.00,,,0.00,0.0,meteohub,2016-02-12 12:18:00,
2016-02-12 04:23:00,36.5,29.3,30.26,SSW,211,0.0,2.0,75,0.00,,,0.00,0.0,meteohub,2016-02-12 12:23:00,
2016-02-12 04:28:00,35.8,28.6,30.27,SSW,211,0.0,2.0,75,0.00,,,0.00,0.0,meteohub,2016-02-12 12:28:00,
2016-02-12 04:34:00,35.2,28.4,30.26,SSW,211,0.0,0.0,76,0.00,,,0.00,0.0,meteohub,2016-02-12 12:34:00,
2016-02-12 04:39:00,34.9,28.4,30.26,SSW,211,0.0,1.0,77,0.00,,,0.00,0.0,meteohub,2016-02-12 12:39:00,
2016-02-12 04:44:00,34.9,29.1,30.26,SSW,211,0.0,1.0,79,0.00,,,0.00,0.0,meteohub,2016-02-12 12:44:00,
2016-02-12 04:49:00,34.3,28.6,30.26,SSW,211,0.0,1.0,79,0.00,,,0.00,0.0,meteohub,2016-02-12 12:49:00,
2016-02-12 04:54:00,34.3,28.8,30.27,SSW,210,1.0,2.0,80,0.00,,,0.00,0.0,meteohub,2016-02-12 12:54:00,
2016-02-12 04:59:00,34.5,29.3,30.27,SSW,211,0.0,2.0,81,0.00,,,0.00,0.0,meteohub,2016-02-12 12:59:00,
2016-02-12 05:04:00,34.7,29.5,30.27,SSW,211,1.0,2.0,81,0.00,,,0.00,0.0,meteohub,2016-02-12 13:04:00,
2016-02-12 05:09:00,34.9,30.0,30.27,SSW,211,0.0,2.0,82,0.00,,,0.00,0.0,meteohub,2016-02-12 13:09:00,
2016-02-12 05:14:00,35.1,29.5,30.27,SSW,211,0.0,2.0,80,0.00,,,0.00,0.0,meteohub,2016-02-12 13:14:00,
2016-02-12 05:19:00,35.1,29.5,30.27,SSW,211,0.0,2.0,80,0.00,,,0.00,0.0,meteohub,2016-02-12 13:19:00,
2016-02-12 05:24:00,35.2,29.7,30.27,SSW,210,0.0,2.0,80,0.00,,,0.00,0.0,meteohub,2016-02-12 13:24:00,
2016-02-12 05:34:00,35.1,28.9,30.27,SSW,211,0.0,3.0,78,0.00,,,0.00,0.0,meteohub,2016-02-12 13:34:00,
2016-02-12 05:39:00,34.5,28.4,30.27,SSW,210,0.0,1.0,78,0.00,,,0.00,0.0,meteohub,2016-02-12 13:39:00,
2016-02-12 05:44:00,34.3,28.6,30.27,SSW,211,0.0,1.0,79,0.00,,,0.00,0.0,meteohub,2016-02-12 13:44:00,
2016-02-12 05:49:00,34.2,28.4,30.27,SSW,211,0.0,1.0,79,0.00,,,0.00,0.0,meteohub,2016-02-12 13:49:00,
2016-02-12 05:54:00,33.6,28.0,30.27,SSW,211,0.0,1.0,80,0.00,,,0.00,0.0,meteohub,2016-02-12 13:54:00,
2016-02-12 05:59:00,33.4,28.2,30.27,SSW,211,1.0,1.0,81,0.00,,,0.00,0.0,meteohub,2016-02-12 13:59:00,
2016-02-12 06:05:00,33.3,28.0,30.27,SSW,211,0.0,2.0,81,0.00,,,0.00,0.0,meteohub,2016-02-12 14:05:00,
2016-02-12 06:10:00,33.4,28.6,30.28,SSW,210,0.0,3.0,82,0.00,,,0.00,0.0,meteohub,2016-02-12 14:10:00,
2016-02-12 06:15:00,33.4,28.6,30.28,SSW,211,0.0,3.0,82,0.00,,,0.00,0.0,meteohub,2016-02-12 14:15:00,
2016-02-12 06:20:00,33.3,28.0,30.28,SSW,211,0.0,3.0,81,0.00,,,0.00,0.0,meteohub,2016-02-12 14:20:00,
2016-02-12 06:25:00,33.1,27.9,30.28,SSW,211,0.0,1.0,81,0.00,,,0.00,0.0,meteohub,2016-02-12 14:25:00,
2016-02-12 06:30:00,33.3,28.4,30.28,SSW,211,0.0,1.0,82,0.00,,,0.00,0.0,meteohub,2016-02-12 14:30:00,
2016-02-12 06:35:00,33.4,28.2,30.28,SSW,211,0.0,1.0,81,0.00,,,0.00,0.0,meteohub,2016-02-12 14:35:00,
2016-02-12 06:40:00,33.6,28.8,30.28,SSW,211,0.0,1.0,82,0.00,,,0.00,0.0,meteohub,2016-02-12 14:40:00,
2016-02-12 06:45:00,33.4,28.2,30.28,SSW,211,0.0,1.0,81,0.00,,,0.00,0.0,meteohub,2016-02-12 14:45:00,
2016-02-12 06:50:00,33.4,28.6,30.28,SSW,211,0.0,0.0,82,0.00,,,0.00,0.0,meteohub,2016-02-12 14:50:00,
2016-02-12 06:55:00,33.6,28.8,30.29,SSW,211,0.0,0.0,82,0.00,,,0.00,0.0,meteohub,2016-02-12 14:55:00,
2016-02-12 07:00:00,33.6,28.4,30.29,SSW,211,1.0,1.0,81,0.00,,,0.00,0.0,meteohub,2016-02-12 15:00:00,
2016-02-12 07:05:00,33.3,28.4,30.28,SSW,211,0.0,1.0,82,0.00,,,0.00,5.0,meteohub,2016-02-12 15:05:00,
2016-02-12 07:10:00,33.4,28.6,30.29,SSW,211,0.0,2.0,82,0.00,,,0.00,9.0,meteohub,2016-02-12 15:10:00,
2016-02-12 07:15:00,33.6,28.9,30.28,SSW,211,0.0,2.0,83,0.00,,,0.00,12.0,meteohub,2016-02-12 15:15:00,
2016-02-12 07:20:00,34.2,29.5,30.28,SSW,211,0.0,2.0,83,0.00,,,0.00,16.0,meteohub,2016-02-12 15:20:00,
2016-02-12 07:25:00,34.5,29.3,30.29,SSW,211,0.0,1.0,81,0.00,,,0.00,21.0,meteohub,2016-02-12 15:25:00,
2016-02-12 07:30:00,34.7,29.5,30.29,SSW,211,0.0,0.0,81,0.00,,,0.00,25.0,meteohub,2016-02-12 15:30:00,
2016-02-12 07:35:00,34.5,29.3,30.29,SSW,211,0.0,0.0,81,0.00,,,0.00,32.0,meteohub,2016-02-12 15:35:00,
2016-02-12 07:41:00,34.5,29.3,30.29,SSW,211,0.0,0.0,81,0.00,,,0.00,37.0,meteohub,2016-02-12 15:41:00,
2016-02-12 07:46:00,35.1,30.2,30.29,SSW,211,0.0,0.0,82,0.00,,,0.00,44.0,meteohub,2016-02-12 15:46:00,
2016-02-12 07:51:00,35.2,30.0,30.29,SSW,211,0.0,0.0,81,0.00,,,0.00,54.0,meteohub,2016-02-12 15:51:00,
2016-02-12 07:56:00,35.4,30.2,30.29,SSW,211,0.0,0.0,81,0.00,,,0.00,70.0,meteohub,2016-02-12 15:56:00,
2016-02-12 08:01:00,36.1,30.6,30.29,SSW,211,0.0,0.0,80,0.00,,,0.00,74.0,meteohub,2016-02-12 16:01:00,
2016-02-12 08:06:00,36.3,30.7,30.30,SSW,211,0.0,0.0,80,0.00,,,0.00,88.0,meteohub,2016-02-12 16:06:00,
2016-02-12 08:11:00,36.9,31.3,30.30,SSW,211,0.0,0.0,80,0.00,,,0.00,102.0,meteohub,2016-02-12 16:11:00,
2016-02-12 08:21:00,38.1,31.8,30.30,SSW,211,0.0,0.0,78,0.00,,,0.00,120.0,meteohub,2016-02-12 16:21:00,
2016-02-12 08:26:00,39.4,32.5,30.30,SSW,211,0.0,0.0,76,0.00,,,0.00,113.0,meteohub,2016-02-12 16:26:00,
2016-02-12 08:31:00,39.6,32.4,30.31,SSW,211,0.0,0.0,75,0.00,,,0.00,111.0,meteohub,2016-02-12 16:31:00,
2016-02-12 08:36:00,39.7,32.5,30.30,SSW,211,0.0,0.0,75,0.00,,,0.00,128.0,meteohub,2016-02-12 16:36:00,
2016-02-12 08:41:00,39.9,32.7,30.30,SSW,211,0.0,0.0,75,0.00,,,0.00,148.0,meteohub,2016-02-12 16:41:00,
2016-02-12 08:46:00,40.5,33.1,30.31,SSW,211,0.0,0.0,75,0.00,,,0.00,169.0,meteohub,2016-02-12 16:46:00,
2016-02-12 08:51:00,40.8,33.3,30.30,SSW,211,0.0,0.0,74,0.00,,,0.00,185.0,meteohub,2016-02-12 16:51:00,
2016-02-12 08:56:00,41.2,32.9,30.30,SSW,211,0.0,0.0,72,0.00,,,0.00,197.0,meteohub,2016-02-12 16:56:00,
2016-02-12 09:01:00,41.7,33.1,30.30,SSW,211,0.0,0.0,71,0.00,,,0.00,167.0,meteohub,2016-02-12 17:01:00,
2016-02-12 09:06:00,42.3,33.3,30.30,SSW,211,0.0,0.0,70,0.00,,,0.00,163.0,meteohub,2016-02-12 17:06:00,
2016-02-12 09:11:00,42.3,33.3,30.30,SSW,211,0.0,0.0,70,0.00,,,0.00,155.0,meteohub,2016-02-12 17:11:00,
2016-02-12 09:16:00,42.4,32.7,30.30,SSW,211,0.0,0.0,68,0.00,,,0.00,148.0,meteohub,2016-02-12 17:16:00,
2016-02-12 09:21:00,42.4,33.1,30.30,SSW,211,0.0,0.0,69,0.00,,,0.00,139.0,meteohub,2016-02-12 17:21:00,
2016-02-12 09:26:00,42.6,33.1,30.30,SSW,211,0.0,0.0,69,0.00,,,0.00,156.0,meteohub,2016-02-12 17:26:00,
2016-02-12 09:31:00,43.0,33.1,30.30,SSW,211,0.0,0.0,68,0.00,,,0.00,301.0,meteohub,2016-02-12 17:31:00,
2016-02-12 09:36:00,43.9,34.0,30.30,SSW,211,0.0,0.0,68,0.00,,,0.00,292.0,meteohub,2016-02-12 17:36:00,
2016-02-12 09:41:00,44.4,34.5,30.30,SSW,211,0.0,0.0,68,0.00,,,0.00,269.0,meteohub,2016-02-12 17:41:00,
2016-02-12 09:46:00,44.2,35.1,30.30,SSW,211,0.0,1.0,70,0.00,,,0.00,473.0,meteohub,2016-02-12 17:46:00,
2016-02-12 09:56:00,45.1,35.2,30.30,SSW,211,0.0,2.0,68,0.00,,,0.00,410.0,meteohub,2016-02-12 17:56:00,
2016-02-12 10:01:00,45.5,34.9,30.30,SSW,211,0.0,2.0,66,0.00,,,0.00,346.0,meteohub,2016-02-12 18:01:00,
2016-02-12 10:06:00,45.7,35.1,30.30,SSW,211,0.0,2.0,66,0.00,,,0.00,485.0,meteohub,2016-02-12 18:06:00,
2016-02-12 10:12:00,46.2,35.1,30.29,SSW,211,0.0,2.0,65,0.00,,,0.00,420.0,meteohub,2016-02-12 18:12:00,
2016-02-12 10:17:00,46.9,35.8,30.29,SSW,211,0.0,3.0,65,0.00,,,0.00,492.0,meteohub,2016-02-12 18:17:00,
2016-02-12 10:22:00,47.1,35.6,30.29,SSW,211,0.0,3.0,64,0.00,,,0.00,450.0,meteohub,2016-02-12 18:22:00,
2016-02-12 10:27:00,47.5,36.3,30.29,SSW,211,0.0,1.0,65,0.00,,,0.00,478.0,meteohub,2016-02-12 18:27:00,
2016-02-12 10:37:00,49.3,36.0,30.29,SSW,211,0.0,1.0,60,0.00,,,0.00,529.0,meteohub,2016-02-12 18:37:00,
2016-02-12 10:42:00,48.6,36.1,30.28,SSW,211,0.0,1.0,62,0.00,,,0.00,578.0,meteohub,2016-02-12 18:42:00,
2016-02-12 10:47:00,48.6,35.8,30.28,SSW,211,0.0,1.0,61,0.00,,,0.00,515.0,meteohub,2016-02-12 18:47:00,
2016-02-12 10:52:00,48.7,36.0,30.28,SSW,211,0.0,3.0,61,0.00,,,0.00,606.0,meteohub,2016-02-12 18:52:00,
2016-02-12 10:57:00,49.3,36.3,30.27,SSW,210,0.0,3.0,61,0.00,,,0.00,557.0,meteohub,2016-02-12 18:57:00,
2016-02-12 11:02:00,49.6,35.4,30.27,SSW,211,0.0,2.0,58,0.00,,,0.00,721.0,meteohub,2016-02-12 19:02:00,
2016-02-12 11:07:00,51.1,38.1,30.27,SSW,211,0.0,2.0,61,0.00,,,0.00,673.0,meteohub,2016-02-12 19:07:00,
2016-02-12 11:12:00,51.3,36.1,30.26,SSW,211,0.0,1.0,56,0.00,,,0.00,679.0,meteohub,2016-02-12 19:12:00,
2016-02-12 11:17:00,52.2,36.9,30.26,SSW,211,1.0,1.0,56,0.00,,,0.00,731.0,meteohub,2016-02-12 19:17:00,
2016-02-12 11:27:00,53.1,37.8,30.25,SSW,208,1.0,4.0,56,0.00,,,0.00,738.0,meteohub,2016-02-12 19:27:00,
2016-02-12 11:32:00,53.1,36.9,30.25,SSW,207,1.0,4.0,54,0.00,,,0.00,768.0,meteohub,2016-02-12 19:32:00,
2016-02-12 11:37:00,53.8,36.1,30.25,SSW,206,0.0,4.0,51,0.00,,,0.00,765.0,meteohub,2016-02-12 19:37:00,
2016-02-12 11:43:00,53.8,36.5,30.25,SSW,202,2.0,4.0,52,0.00,,,0.00,714.0,meteohub,2016-02-12 19:43:00,
2016-02-12 11:48:00,53.8,36.5,30.25,SSW,202,0.0,4.0,52,0.00,,,0.00,506.0,meteohub,2016-02-12 19:48:00,
2016-02-12 11:53:00,54.3,36.5,30.24,SSW,202,2.0,4.0,51,0.00,,,0.00,775.0,meteohub,2016-02-12 19:53:00,
2016-02-12 11:58:00,54.7,37.4,30.24,SSW,210,4.0,4.0,52,0.00,,,0.00,661.0,meteohub,2016-02-12 19:58:00,
2016-02-12 12:03:00,55.6,37.8,30.23,SSW,210,0.0,4.0,51,0.00,,,0.00,626.0,meteohub,2016-02-12 20:03:00,
2016-02-12 12:13:00,56.3,36.3,30.22,SSW,210,1.0,4.0,47,0.00,,,0.00,689.0,meteohub,2016-02-12 20:13:00,
2016-02-12 12:18:00,56.7,36.1,30.22,SSW,210,1.0,3.0,46,0.00,,,0.00,608.0,meteohub,2016-02-12 20:18:00,
2016-02-12 12:23:00,56.7,36.1,30.22,SSW,210,4.0,4.0,46,0.00,,,0.00,703.0,meteohub,2016-02-12 20:23:00,
2016-02-12 12:38:00,57.6,36.9,30.21,SSW,210,0.0,4.0,46,0.00,,,0.00,766.0,meteohub,2016-02-12 20:38:00,
2016-02-12 12:43:00,57.7,36.0,30.21,SSW,207,1.0,4.0,44,0.00,,,0.00,772.0,meteohub,2016-02-12 20:43:00,
2016-02-12 12:48:00,57.9,37.2,30.21,SSW,207,0.0,4.0,46,0.00,,,0.00,733.0,meteohub,2016-02-12 20:48:00,
2016-02-12 12:53:00,58.1,35.8,30.21,SSW,207,1.0,4.0,43,0.00,,,0.00,527.0,meteohub,2016-02-12 20:53:00,
2016-02-12 12:58:00,57.7,34.9,30.20,SSW,206,0.0,4.0,42,0.00,,,0.00,689.0,meteohub,2016-02-12 20:58:00,
2016-02-12 13:03:00,58.5,36.7,30.20,SSW,206,0.0,4.0,44,0.00,,,0.00,610.0,meteohub,2016-02-12 21:03:00,
2016-02-12 13:08:00,58.5,34.9,30.19,SSW,206,1.0,4.0,41,0.00,,,0.00,417.0,meteohub,2016-02-12 21:08:00,
2016-02-12 13:13:00,58.6,36.1,30.19,SSW,206,1.0,4.0,43,0.00,,,0.00,714.0,meteohub,2016-02-12 21:13:00,
2016-02-12 13:23:00,60.6,35.6,30.19,SSW,206,0.0,4.0,39,0.00,,,0.00,847.0,meteohub,2016-02-12 21:23:00,
2016-02-12 13:28:00,61.0,35.8,30.19,SSW,206,0.0,7.0,39,0.00,,,0.00,816.0,meteohub,2016-02-12 21:28:00,
2016-02-12 13:33:00,61.2,35.4,30.19,SSW,206,4.0,7.0,38,0.00,,,0.00,766.0,meteohub,2016-02-12 21:33:00,
2016-02-12 13:38:00,60.6,34.2,30.18,SSW,194,0.0,7.0,37,0.00,,,0.00,684.0,meteohub,2016-02-12 21:38:00,
2016-02-12 13:43:00,61.5,35.6,30.18,SSW,194,2.0,5.0,38,0.00,,,0.00,515.0,meteohub,2016-02-12 21:43:00,
2016-02-12 13:48:00,61.3,35.6,30.18,SSW,194,2.0,5.0,38,0.00,,,0.00,571.0,meteohub,2016-02-12 21:48:00,
2016-02-12 13:53:00,61.9,34.7,30.18,SSW,194,1.0,7.0,36,0.00,,,0.00,626.0,meteohub,2016-02-12 21:53:00,
2016-02-12 13:58:00,62.2,35.6,30.18,SW,220,0.0,7.0,37,0.00,,,0.00,740.0,meteohub,2016-02-12 21:58:00,
2016-02-12 14:03:00,62.1,34.2,30.18,SW,221,1.0,7.0,35,0.00,,,0.00,740.0,meteohub,2016-02-12 22:03:00,
2016-02-12 14:08:00,63.5,34.7,30.18,SW,224,3.0,7.0,34,0.00,,,0.00,721.0,meteohub,2016-02-12 22:08:00,
2016-02-12 14:14:00,63.1,34.3,30.18,SW,225,0.0,4.0,34,0.00,,,0.00,763.0,meteohub,2016-02-12 22:14:00,
2016-02-12 14:19:00,63.7,35.6,30.17,SW,224,1.0,5.0,35,0.00,,,0.00,737.0,meteohub,2016-02-12 22:19:00,
2016-02-12 14:24:00,64.4,36.1,30.17,SW,225,0.0,5.0,35,0.00,,,0.00,715.0,meteohub,2016-02-12 22:24:00,
2016-02-12 14:29:00,64.2,34.5,30.17,SW,225,1.0,5.0,33,0.00,,,0.00,703.0,meteohub,2016-02-12 22:29:00,
2016-02-12 14:34:00,64.4,34.7,30.17,WSW,242,1.0,5.0,33,0.00,,,0.00,698.0,meteohub,2016-02-12 22:34:00,
2016-02-12 14:39:00,64.0,33.6,30.17,WSW,242,0.0,8.0,32,0.00,,,0.00,334.0,meteohub,2016-02-12 22:39:00,
2016-02-12 14:44:00,64.0,35.8,30.17,WSW,242,1.0,8.0,35,0.00,,,0.00,283.0,meteohub,2016-02-12 22:44:00,
2016-02-12 14:49:00,63.7,35.6,30.17,WSW,242,0.0,8.0,35,0.00,,,0.00,348.0,meteohub,2016-02-12 22:49:00,
2016-02-12 14:54:00,64.0,34.3,30.17,WSW,242,0.0,3.0,33,0.00,,,0.00,357.0,meteohub,2016-02-12 22:54:00,
2016-02-12 15:04:00,63.0,34.9,30.17,WSW,242,0.0,2.0,35,0.00,,,0.00,246.0,meteohub,2016-02-12 23:04:00,
2016-02-12 15:09:00,63.0,32.7,30.17,WSW,242,0.0,3.0,32,0.00,,,0.00,232.0,meteohub,2016-02-12 23:09:00,
2016-02-12 15:14:00,62.8,34.0,30.17,WSW,242,2.0,3.0,34,0.00,,,0.00,225.0,meteohub,2016-02-12 23:14:00,
2016-02-12 15:19:00,62.4,32.9,30.17,WSW,242,1.0,3.0,33,0.00,,,0.00,190.0,meteohub,2016-02-12 23:19:00,
2016-02-12 15:24:00,62.1,33.4,30.17,WSW,242,0.0,3.0,34,0.00,,,0.00,193.0,meteohub,2016-02-12 23:24:00,
2016-02-12 15:39:00,62.1,31.8,30.17,WSW,242,0.0,2.0,32,0.00,,,0.00,186.0,meteohub,2016-02-12 23:39:00,
2016-02-12 15:44:00,62.1,32.5,30.17,WSW,242,0.0,2.0,33,0.00,,,0.00,199.0,meteohub,2016-02-12 23:44:00,
2016-02-12 15:49:00,62.1,30.2,30.17,WSW,242,0.0,2.0,30,0.00,,,0.00,241.0,meteohub,2016-02-12 23:49:00,
2016-02-12 15:55:00,62.2,28.8,30.17,WSW,242,0.0,1.0,28,0.00,,,0.00,262.0,meteohub,2016-02-12 23:55:00,
2016-02-12 16:00:00,62.6,32.4,30.18,WSW,242,0.0,1.0,32,0.00,,,0.00,163.0,meteohub,2016-02-13 00:00:00,
2016-02-12 16:05:00,62.1,31.1,30.17,WSW,242,0.0,2.0,31,0.00,,,0.00,137.0,meteohub,2016-02-13 00:05:00,
2016-02-12 16:10:00,61.7,30.7,30.17,WSW,242,0.0,2.0,31,0.00,,,0.00,114.0,meteohub,2016-02-13 00:10:00,
2016-02-12 16:15:00,61.5,32.9,30.17,WSW,242,1.0,2.0,34,0.00,,,0.00,86.0,meteohub,2016-02-13 00:15:00,
2016-02-12 16:20:00,61.2,32.5,30.17,WSW,242,1.0,1.0,34,0.00,,,0.00,81.0,meteohub,2016-02-13 00:20:00,
2016-02-12 16:25:00,61.0,32.4,30.17,WSW,242,2.0,2.0,34,0.00,,,0.00,86.0,meteohub,2016-02-13 00:25:00,
2016-02-12 16:30:00,60.8,32.9,30.18,WSW,242,0.0,3.0,35,0.00,,,0.00,97.0,meteohub,2016-02-13 00:30:00,
2016-02-12 16:35:00,60.8,35.1,30.17,WSW,242,0.0,3.0,38,0.00,,,0.00,90.0,meteohub,2016-02-13 00:35:00,
2016-02-12 16:40:00,60.6,33.4,30.17,WSW,242,0.0,3.0,36,0.00,,,0.00,79.0,meteohub,2016-02-13 00:40:00,
2016-02-12 16:45:00,60.6,34.2,30.17,WSW,242,0.0,2.0,37,0.00,,,0.00,58.0,meteohub,2016-02-13 00:45:00,
2016-02-12 16:50:00,60.4,32.7,30.17,WSW,242,0.0,2.0,35,0.00,,,0.00,51.0,meteohub,2016-02-13 00:50:00,
2016-02-12 16:55:00,60.1,32.4,30.17,WSW,242,0.0,2.0,35,0.00,,,0.00,44.0,meteohub,2016-02-13 00:55:00,
2016-02-12 17:00:00,59.7,32.0,30.17,WSW,242,0.0,0.0,35,0.00,,,0.00,46.0,meteohub,2016-02-13 01:00:00,
2016-02-12 17:05:00,59.4,31.6,30.17,WSW,242,3.0,0.0,35,0.00,,,0.00,42.0,meteohub,2016-02-13 01:05:00,
2016-02-12 17:10:00,58.5,34.2,30.18,WSW,242,1.0,2.0,40,0.00,,,0.00,33.0,meteohub,2016-02-13 01:10:00,
2016-02-12 17:15:00,57.7,35.4,30.17,WSW,242,0.0,4.0,43,0.00,,,0.00,21.0,meteohub,2016-02-13 01:15:00,
2016-02-12 17:20:00,57.0,33.6,30.17,WSW,242,0.0,4.0,41,0.00,,,0.00,11.0,meteohub,2016-02-13 01:20:00,
2016-02-12 17:25:00,56.8,31.5,30.17,WSW,242,0.0,4.0,38,0.00,,,0.00,5.0,meteohub,2016-02-13 01:25:00,
2016-02-12 17:30:00,56.5,31.8,30.17,WSW,242,0.0,2.0,39,0.00,,,0.00,0.0,meteohub,2016-02-13 01:30:00,
2016-02-12 17:36:00,56.1,30.9,30.18,WSW,242,0.0,2.0,38,0.00,,,0.00,0.0,meteohub,2016-02-13 01:36:00,
2016-02-12 17:41:00,56.3,31.1,30.18,WSW,242,0.0,0.0,38,0.00,,,0.00,0.0,meteohub,2016-02-13 01:41:00,
2016-02-12 17:46:00,55.8,32.4,30.18,WSW,242,1.0,1.0,41,0.00,,,0.00,0.0,meteohub,2016-02-13 01:46:00,
2016-02-12 17:56:00,54.5,28.8,30.18,WSW,242,0.0,3.0,37,0.00,,,0.00,0.0,meteohub,2016-02-13 01:56:00,
2016-02-12 18:01:00,54.9,29.7,30.19,WSW,242,1.0,4.0,38,0.00,,,0.00,0.0,meteohub,2016-02-13 02:01:00,
2016-02-12 18:06:00,54.7,28.9,30.19,WSW,242,1.0,4.0,37,0.00,,,0.00,0.0,meteohub,2016-02-13 02:06:00,
2016-02-12 18:11:00,53.8,30.6,30.19,WSW,242,1.0,3.0,41,0.00,,,0.00,0.0,meteohub,2016-02-13 02:11:00,
2016-02-12 18:16:00,53.1,30.6,30.18,WSW,242,1.0,3.0,42,0.00,,,0.00,0.0,meteohub,2016-02-13 02:16:00,
2016-02-12 18:21:00,52.9,31.6,30.18,WSW,242,1.0,4.0,44,0.00,,,0.00,0.0,meteohub,2016-02-13 02:21:00,
2016-02-12 18:26:00,52.9,29.8,30.18,WSW,242,1.0,4.0,41,0.00,,,0.00,0.0,meteohub,2016-02-13 02:26:00,
2016-02-12 18:31:00,52.7,30.7,30.18,WSW,242,1.0,5.0,43,0.00,,,0.00,0.0,meteohub,2016-02-13 02:31:00,
2016-02-12 18:36:00,52.9,29.3,30.18,WSW,242,0.0,5.0,40,0.00,,,0.00,0.0,meteohub,2016-02-13 02:36:00,
2016-02-12 18:41:00,52.5,29.5,30.18,WSW,242,1.0,2.0,41,0.00,,,0.00,0.0,meteohub,2016-02-13 02:41:00,
2016-02-12 18:47:00,52.2,28.6,30.18,WSW,242,1.0,4.0,40,0.00,,,0.00,0.0,meteohub,2016-02-13 02:47:00,
2016-02-12 18:52:00,52.5,28.2,30.19,WSW,242,0.0,4.0,39,0.00,,,0.00,0.0,meteohub,2016-02-13 02:52:00,
2016-02-12 18:57:00,52.2,27.9,30.18,WSW,242,0.0,4.0,39,0.00,,,0.00,0.0,meteohub,2016-02-13 02:57:00,
2016-02-12 19:02:00,52.2,28.6,30.18,WSW,242,2.0,3.0,40,0.00,,,0.00,0.0,meteohub,2016-02-13 03:02:00,
2016-02-12 19:07:00,51.4,27.3,30.18,WSW,242,0.0,3.0,39,0.00,,,0.00,0.0,meteohub,2016-02-13 03:07:00,
2016-02-12 19:12:00,51.1,28.2,30.18,WSW,242,2.0,3.0,41,0.00,,,0.00,0.0,meteohub,2016-02-13 03:12:00,
2016-02-12 19:17:00,51.1,27.7,30.18,WSW,242,1.0,3.0,40,0.00,,,0.00,0.0,meteohub,2016-02-13 03:17:00,
2016-02-12 19:22:00,50.5,27.7,30.18,WSW,242,2.0,3.0,41,0.00,,,0.00,0.0,meteohub,2016-02-13 03:22:00,
2016-02-12 19:27:00,50.5,28.9,30.18,WSW,242,0.0,4.0,43,0.00,,,0.00,0.0,meteohub,2016-02-13 03:27:00,
2016-02-12 19:32:00,50.4,27.5,30.18,WSW,242,0.0,4.0,41,0.00,,,0.00,0.0,meteohub,2016-02-13 03:32:00,